sensor_id;sensor_type;location;lat;lon;timestamp;P1;P2;P0
24012;PMS7003;12220;50.194;18.948;2024-03-08T00:01:11;31;27;17
24012;PMS7003;12220;50.194;18.948;2024-03-08T00:03:17;37;29;19
24012;PMS7003;12220;50.194;18.948;2024-03-08T00:05:19;34;28;17
24012;PMS7003;12220;50.194;18.948;2024-03-08T00:07:24;39;29;20
24012;PMS7003;12220;50.194;18.948;2024-03-08T00:09:28;34;30;15
24012;PMS7003;12220;50.194;18.948;2024-03-08T00:11:31;42;35;19
24012;PMS7003;12220;50.194;18.948;2024-03-08T00:13:32;37;29;17
24012;PMS7003;12220;50.194;18.948;2024-03-08T00:15:40;43;30;19
24012;PMS7003;12220;50.194;18.948;2024-03-08T00:17:42;36;31;18
24012;PMS7003;12220;50.194;18.948;2024-03-08T00:19:44;41;28;17
24012;PMS7003;12220;50.194;18.948;2024-03-08T00:21:46;37;32;21
24012;PMS7003;12220;50.194;18.948;2024-03-08T00:23:55;30;26;19
24012;PMS7003;12220;50.194;18.948;2024-03-08T00:25:56;42;31;20
24012;PMS7003;12220;50.194;18.948;2024-03-08T00:27:57;25;24;15
24012;PMS7003;12220;50.194;18.948;2024-03-08T00:30:00;34;32;20
24012;PMS7003;12220;50.194;18.948;2024-03-08T00:32:10;29;27;17
24012;PMS7003;12220;50.194;18.948;2024-03-08T00:34:11;33;28;18
24012;PMS7003;12220;50.194;18.948;2024-03-08T00:36:12;32;28;15
24012;PMS7003;12220;50.194;18.948;2024-03-08T00:38:13;43;32;19
24012;PMS7003;12220;50.194;18.948;2024-03-08T00:40:25;38;31;19
24012;PMS7003;12220;50.194;18.948;2024-03-08T00:42:26;38;33;17
24012;PMS7003;12220;50.194;18.948;2024-03-08T00:44:27;31;27;18
24012;PMS7003;12220;50.194;18.948;2024-03-08T00:46:29;36;30;17
24012;PMS7003;12220;50.194;18.948;2024-03-08T00:48:40;34;32;21
24012;PMS7003;12220;50.194;18.948;2024-03-08T00:50:47;38;31;18
24012;PMS7003;12220;50.194;18.948;2024-03-08T00:52:49;35;29;20
24012;PMS7003;12220;50.194;18.948;2024-03-08T00:54:50;18;18;12
24012;PMS7003;12220;50.194;18.948;2024-03-08T00:56:55;31;28;16
24012;PMS7003;12220;50.194;18.948;2024-03-08T00:58:57;36;29;17
24012;PMS7003;12220;50.194;18.948;2024-03-08T01:00:58;28;25;12
24012;PMS7003;12220;50.194;18.948;2024-03-08T01:03:01;46;36;20
24012;PMS7003;12220;50.194;18.948;2024-03-08T01:05:11;35;25;18
24012;PMS7003;12220;50.194;18.948;2024-03-08T01:07:12;44;30;21
24012;PMS7003;12220;50.194;18.948;2024-03-08T01:09:13;39;30;19
24012;PMS7003;12220;50.194;18.948;2024-03-08T01:11:18;40;34;21
24012;PMS7003;12220;50.194;18.948;2024-03-08T01:13:26;39;30;19
24012;PMS7003;12220;50.194;18.948;2024-03-08T01:15:29;34;32;18
24012;PMS7003;12220;50.194;18.948;2024-03-08T01:17:30;34;29;19
24012;PMS7003;12220;50.194;18.948;2024-03-08T01:19:32;41;34;21
24012;PMS7003;12220;50.194;18.948;2024-03-08T01:21:41;40;30;18
24012;PMS7003;12220;50.194;18.948;2024-03-08T01:23:43;41;33;20
24012;PMS7003;12220;50.194;18.948;2024-03-08T01:25:44;43;33;19
24012;PMS7003;12220;50.194;18.948;2024-03-08T01:27:45;31;29;19
24012;PMS7003;12220;50.194;18.948;2024-03-08T01:29:56;34;31;17
24012;PMS7003;12220;50.194;18.948;2024-03-08T01:32:00;39;32;18
24012;PMS7003;12220;50.194;18.948;2024-03-08T01:34:02;24;24;15
24012;PMS7003;12220;50.194;18.948;2024-03-08T01:36:04;34;29;16
24012;PMS7003;12220;50.194;18.948;2024-03-08T01:38:11;37;31;19
24012;PMS7003;12220;50.194;18.948;2024-03-08T01:40:12;32;27;17
24012;PMS7003;12220;50.194;18.948;2024-03-08T01:42:14;39;28;20
24012;PMS7003;12220;50.194;18.948;2024-03-08T01:44:18;24;21;12
24012;PMS7003;12220;50.194;18.948;2024-03-08T01:46:26;40;32;18
24012;PMS7003;12220;50.194;18.948;2024-03-08T01:48:32;50;35;22
24012;PMS7003;12220;50.194;18.948;2024-03-08T01:50:34;33;30;18
24012;PMS7003;12220;50.194;18.948;2024-03-08T01:52:36;31;25;16
24012;PMS7003;12220;50.194;18.948;2024-03-08T01:54:41;31;29;19
24012;PMS7003;12220;50.194;18.948;2024-03-08T01:56:43;39;31;19
24012;PMS7003;12220;50.194;18.948;2024-03-08T01:58:44;38;30;18
24012;PMS7003;12220;50.194;18.948;2024-03-08T02:00:48;33;28;17
24012;PMS7003;12220;50.194;18.948;2024-03-08T02:02:57;36;30;20
24012;PMS7003;12220;50.194;18.948;2024-03-08T02:04:59;43;32;20
24012;PMS7003;12220;50.194;18.948;2024-03-08T02:07:01;32;26;17
24012;PMS7003;12220;50.194;18.948;2024-03-08T02:09:06;27;25;16
24012;PMS7003;12220;50.194;18.948;2024-03-08T02:11:12;35;31;20
24012;PMS7003;12220;50.194;18.948;2024-03-08T02:13:13;34;30;19
24012;PMS7003;12220;50.194;18.948;2024-03-08T02:15:15;38;31;17
24012;PMS7003;12220;50.194;18.948;2024-03-08T02:17:17;42;36;22
24012;PMS7003;12220;50.194;18.948;2024-03-08T02:19:27;40;33;21
24012;PMS7003;12220;50.194;18.948;2024-03-08T02:21:28;30;29;21
24012;PMS7003;12220;50.194;18.948;2024-03-08T02:23:32;42;31;17
24012;PMS7003;12220;50.194;18.948;2024-03-08T02:25:34;36;32;22
24012;PMS7003;12220;50.194;18.948;2024-03-08T02:27:42;29;27;14
24012;PMS7003;12220;50.194;18.948;2024-03-08T02:29:43;41;29;20
24012;PMS7003;12220;50.194;18.948;2024-03-08T02:31:45;41;34;22
24012;PMS7003;12220;50.194;18.948;2024-03-08T02:33:46;30;30;22
24012;PMS7003;12220;50.194;18.948;2024-03-08T02:35:57;36;32;23
24012;PMS7003;12220;50.194;18.948;2024-03-08T02:37:59;28;25;16
24012;PMS7003;12220;50.194;18.948;2024-03-08T02:40:01;40;31;19
24012;PMS7003;12220;50.194;18.948;2024-03-08T02:42:02;30;25;12
24012;PMS7003;12220;50.194;18.948;2024-03-08T02:44:12;39;33;19
24012;PMS7003;12220;50.194;18.948;2024-03-08T02:46:15;33;30;18
24012;PMS7003;12220;50.194;18.948;2024-03-08T02:48:16;33;28;17
24012;PMS7003;12220;50.194;18.948;2024-03-08T02:50:18;24;20;15
24012;PMS7003;12220;50.194;18.948;2024-03-08T02:52:28;31;27;18
24012;PMS7003;12220;50.194;18.948;2024-03-08T02:54:29;30;28;17
24012;PMS7003;12220;50.194;18.948;2024-03-08T02:56:30;25;24;15
24012;PMS7003;12220;50.194;18.948;2024-03-08T02:58:35;36;28;14
24012;PMS7003;12220;50.194;18.948;2024-03-08T03:00:43;36;32;19
24012;PMS7003;12220;50.194;18.948;2024-03-08T03:02:45;34;27;15
24012;PMS7003;12220;50.194;18.948;2024-03-08T03:04:46;24;20;14
24012;PMS7003;12220;50.194;18.948;2024-03-08T03:06:47;33;28;17
24012;PMS7003;12220;50.194;18.948;2024-03-08T03:08:58;32;27;15
24012;PMS7003;12220;50.194;18.948;2024-03-08T03:10:59;32;27;15
24012;PMS7003;12220;50.194;18.948;2024-03-08T03:13:02;26;23;12
24012;PMS7003;12220;50.194;18.948;2024-03-08T03:15:05;21;16;12
24012;PMS7003;12220;50.194;18.948;2024-03-08T03:17:13;32;28;16
24012;PMS7003;12220;50.194;18.948;2024-03-08T03:19:14;25;23;16
24012;PMS7003;12220;50.194;18.948;2024-03-08T03:21:15;26;21;15
24012;PMS7003;12220;50.194;18.948;2024-03-08T03:23:17;22;22;15
24012;PMS7003;12220;50.194;18.948;2024-03-08T03:25:29;33;27;15
24012;PMS7003;12220;50.194;18.948;2024-03-08T03:27:35;27;20;14
24012;PMS7003;12220;50.194;18.948;2024-03-08T03:29:41;34;30;17
24012;PMS7003;12220;50.194;18.948;2024-03-08T03:31:46;29;24;16
24012;PMS7003;12220;50.194;18.948;2024-03-08T03:33:47;35;30;18
24012;PMS7003;12220;50.194;18.948;2024-03-08T03:35:48;27;26;17
24012;PMS7003;12220;50.194;18.948;2024-03-08T03:37:52;38;32;19
24012;PMS7003;12220;50.194;18.948;2024-03-08T03:40:05;28;23;16
24012;PMS7003;12220;50.194;18.948;2024-03-08T03:42:09;31;24;15
24012;PMS7003;12220;50.194;18.948;2024-03-08T03:44:10;38;30;19
24012;PMS7003;12220;50.194;18.948;2024-03-08T03:46:11;44;32;20
24012;PMS7003;12220;50.194;18.948;2024-03-08T03:48:12;29;26;16
24012;PMS7003;12220;50.194;18.948;2024-03-08T03:50:16;33;29;19
24012;PMS7003;12220;50.194;18.948;2024-03-08T03:52:19;40;33;22
24012;PMS7003;12220;50.194;18.948;2024-03-08T03:54:20;32;26;16
24012;PMS7003;12220;50.194;18.948;2024-03-08T03:56:24;37;25;15
24012;PMS7003;12220;50.194;18.948;2024-03-08T03:58:31;20;18;9
24012;PMS7003;12220;50.194;18.948;2024-03-08T04:00:32;30;25;15
24012;PMS7003;12220;50.194;18.948;2024-03-08T04:02:33;26;26;14
24012;PMS7003;12220;50.194;18.948;2024-03-08T04:04:35;22;18;11
24012;PMS7003;12220;50.194;18.948;2024-03-08T04:06:46;26;22;13
24012;PMS7003;12220;50.194;18.948;2024-03-08T04:08:50;25;22;12
24012;PMS7003;12220;50.194;18.948;2024-03-08T04:10:51;23;21;11
24012;PMS7003;12220;50.194;18.948;2024-03-08T04:12:52;19;17;11
24012;PMS7003;12220;50.194;18.948;2024-03-08T04:15:01;18;17;14
24012;PMS7003;12220;50.194;18.948;2024-03-08T04:17:03;27;20;12
24012;PMS7003;12220;50.194;18.948;2024-03-08T04:19:04;28;22;14
24012;PMS7003;12220;50.194;18.948;2024-03-08T04:21:05;32;23;15
24012;PMS7003;12220;50.194;18.948;2024-03-08T04:23:17;28;26;12
24012;PMS7003;12220;50.194;18.948;2024-03-08T04:25:19;26;21;13
24012;PMS7003;12220;50.194;18.948;2024-03-08T04:27:21;24;19;13
24012;PMS7003;12220;50.194;18.948;2024-03-08T04:29:22;30;25;14
24012;PMS7003;12220;50.194;18.948;2024-03-08T04:31:32;28;19;10
24012;PMS7003;12220;50.194;18.948;2024-03-08T04:33:33;26;21;13
24012;PMS7003;12220;50.194;18.948;2024-03-08T04:35:37;23;20;13
24012;PMS7003;12220;50.194;18.948;2024-03-08T04:37:38;18;15;9
24012;PMS7003;12220;50.194;18.948;2024-03-08T04:39:47;18;17;12
24012;PMS7003;12220;50.194;18.948;2024-03-08T04:41:49;21;16;11
24012;PMS7003;12220;50.194;18.948;2024-03-08T04:43:50;24;23;12
24012;PMS7003;12220;50.194;18.948;2024-03-08T04:45:52;22;20;12
24012;PMS7003;12220;50.194;18.948;2024-03-08T04:48:02;24;19;13
24012;PMS7003;12220;50.194;18.948;2024-03-08T04:50:03;30;22;10
24012;PMS7003;12220;50.194;18.948;2024-03-08T04:52:05;24;19;15
24012;PMS7003;12220;50.194;18.948;2024-03-08T04:54:07;18;17;10
24012;PMS7003;12220;50.194;18.948;2024-03-08T04:56:17;24;18;12
24012;PMS7003;12220;50.194;18.948;2024-03-08T04:58:20;29;22;14
24012;PMS7003;12220;50.194;18.948;2024-03-08T05:00:21;27;21;13
24012;PMS7003;12220;50.194;18.948;2024-03-08T05:02:22;23;20;13
24012;PMS7003;12220;50.194;18.948;2024-03-08T05:04:32;29;21;13
24012;PMS7003;12220;50.194;18.948;2024-03-08T05:06:33;20;18;11
24012;PMS7003;12220;50.194;18.948;2024-03-08T05:08:35;18;18;12
24012;PMS7003;12220;50.194;18.948;2024-03-08T05:10:36;21;19;12
24012;PMS7003;12220;50.194;18.948;2024-03-08T05:12:47;29;19;10
24012;PMS7003;12220;50.194;18.948;2024-03-08T05:14:50;18;17;11
24012;PMS7003;12220;50.194;18.948;2024-03-08T05:16:51;22;20;12
24012;PMS7003;12220;50.194;18.948;2024-03-08T05:18:52;23;21;11
24012;PMS7003;12220;50.194;18.948;2024-03-08T05:21:03;19;19;13
24012;PMS7003;12220;50.194;18.948;2024-03-08T05:23:04;22;20;12
24012;PMS7003;12220;50.194;18.948;2024-03-08T05:25:06;17;14;8
24012;PMS7003;12220;50.194;18.948;2024-03-08T05:27:11;25;16;10
24012;PMS7003;12220;50.194;18.948;2024-03-08T05:29:18;21;21;14
24012;PMS7003;12220;50.194;18.948;2024-03-08T05:31:22;27;20;16
24012;PMS7003;12220;50.194;18.948;2024-03-08T05:33:23;30;21;12
24012;PMS7003;12220;50.194;18.948;2024-03-08T05:35:24;32;27;16
24012;PMS7003;12220;50.194;18.948;2024-03-08T05:37:33;27;22;14
24012;PMS7003;12220;50.194;18.948;2024-03-08T05:39:34;21;18;10
24012;PMS7003;12220;50.194;18.948;2024-03-08T05:41:35;25;22;14
24012;PMS7003;12220;50.194;18.948;2024-03-08T05:43:37;19;17;13
24012;PMS7003;12220;50.194;18.948;2024-03-08T05:45:48;27;21;12
24012;PMS7003;12220;50.194;18.948;2024-03-08T05:47:49;25;21;13
24012;PMS7003;12220;50.194;18.948;2024-03-08T05:49:52;25;18;13
24012;PMS7003;12220;50.194;18.948;2024-03-08T05:51:54;22;22;12
24012;PMS7003;12220;50.194;18.948;2024-03-08T05:54:04;38;31;20
24012;PMS7003;12220;50.194;18.948;2024-03-08T05:56:06;35;26;15
24012;PMS7003;12220;50.194;18.948;2024-03-08T05:58:10;29;26;16
24012;PMS7003;12220;50.194;18.948;2024-03-08T06:00:12;32;25;17
24012;PMS7003;12220;50.194;18.948;2024-03-08T06:02:19;29;24;17
24012;PMS7003;12220;50.194;18.948;2024-03-08T06:04:20;32;26;17
24012;PMS7003;12220;50.194;18.948;2024-03-08T06:06:21;27;22;13
24012;PMS7003;12220;50.194;18.948;2024-03-08T06:08:26;38;30;15
24012;PMS7003;12220;50.194;18.948;2024-03-08T06:10:33;32;24;15
24012;PMS7003;12220;50.194;18.948;2024-03-08T06:12:34;21;18;13
24012;PMS7003;12220;50.194;18.948;2024-03-08T06:14:41;33;26;16
24012;PMS7003;12220;50.194;18.948;2024-03-08T06:16:44;34;28;16
24012;PMS7003;12220;50.194;18.948;2024-03-08T06:18:48;28;22;12
24012;PMS7003;12220;50.194;18.948;2024-03-08T06:20:50;26;21;13
24012;PMS7003;12220;50.194;18.948;2024-03-08T06:22:51;29;25;13
24012;PMS7003;12220;50.194;18.948;2024-03-08T06:24:52;38;30;17
24012;PMS7003;12220;50.194;18.948;2024-03-08T06:27:04;29;21;13
24012;PMS7003;12220;50.194;18.948;2024-03-08T06:29:06;45;28;18
24012;PMS7003;12220;50.194;18.948;2024-03-08T06:31:07;28;21;13
24012;PMS7003;12220;50.194;18.948;2024-03-08T06:33:09;29;25;16
24012;PMS7003;12220;50.194;18.948;2024-03-08T06:35:20;20;20;12
24012;PMS7003;12220;50.194;18.948;2024-03-08T06:37:21;23;23;15
24012;PMS7003;12220;50.194;18.948;2024-03-08T06:39:24;34;30;17
24012;PMS7003;12220;50.194;18.948;2024-03-08T06:41:25;31;26;17
24012;PMS7003;12220;50.194;18.948;2024-03-08T06:43:35;37;27;12
24012;PMS7003;12220;50.194;18.948;2024-03-08T06:45:36;32;27;16
24012;PMS7003;12220;50.194;18.948;2024-03-08T06:47:38;29;26;17
24012;PMS7003;12220;50.194;18.948;2024-03-08T06:49:42;37;25;17
24012;PMS7003;12220;50.194;18.948;2024-03-08T06:51:50;31;24;15
24012;PMS7003;12220;50.194;18.948;2024-03-08T06:53:51;43;35;20
24012;PMS7003;12220;50.194;18.948;2024-03-08T06:55:52;34;28;18
24012;PMS7003;12220;50.194;18.948;2024-03-08T06:57:57;30;29;18
24012;PMS7003;12220;50.194;18.948;2024-03-08T07:00:06;41;31;16
24012;PMS7003;12220;50.194;18.948;2024-03-08T07:02:14;38;32;20
24012;PMS7003;12220;50.194;18.948;2024-03-08T07:04:15;48;31;19
24012;PMS7003;12220;50.194;18.948;2024-03-08T07:06:17;42;30;18
24012;PMS7003;12220;50.194;18.948;2024-03-08T07:08:20;42;34;21
24012;PMS7003;12220;50.194;18.948;2024-03-08T07:10:23;43;30;21
24012;PMS7003;12220;50.194;18.948;2024-03-08T07:12:29;39;31;18
24012;PMS7003;12220;50.194;18.948;2024-03-08T07:14:30;39;30;19
24012;PMS7003;12220;50.194;18.948;2024-03-08T07:16:35;39;33;19
24012;PMS7003;12220;50.194;18.948;2024-03-08T07:18:37;41;34;19
24012;PMS7003;12220;50.194;18.948;2024-03-08T07:20:45;44;34;21
24012;PMS7003;12220;50.194;18.948;2024-03-08T07:22:46;38;34;22
24012;PMS7003;12220;50.194;18.948;2024-03-08T07:24:51;45;34;19
24012;PMS7003;12220;50.194;18.948;2024-03-08T07:27:12;41;34;19
24012;PMS7003;12220;50.194;18.948;2024-03-08T07:29:13;43;32;18
24012;PMS7003;12220;50.194;18.948;2024-03-08T07:31:14;39;33;18
24012;PMS7003;12220;50.194;18.948;2024-03-08T07:33:28;33;23;13
24012;PMS7003;12220;50.194;18.948;2024-03-08T07:35:31;35;31;18
24012;PMS7003;12220;50.194;18.948;2024-03-08T07:37:32;41;34;20
24012;PMS7003;12220;50.194;18.948;2024-03-08T07:39:33;31;27;17
24012;PMS7003;12220;50.194;18.948;2024-03-08T07:41:34;44;33;20
24012;PMS7003;12220;50.194;18.948;2024-03-08T07:43:42;38;33;16
24012;PMS7003;12220;50.194;18.948;2024-03-08T07:45:44;46;37;22
24012;PMS7003;12220;50.194;18.948;2024-03-08T07:47:45;33;26;17
24012;PMS7003;12220;50.194;18.948;2024-03-08T07:49:46;44;33;20
24012;PMS7003;12220;50.194;18.948;2024-03-08T07:51:57;36;31;20
24012;PMS7003;12220;50.194;18.948;2024-03-08T07:53:59;38;34;20
24012;PMS7003;12220;50.194;18.948;2024-03-08T07:56:01;42;32;19
24012;PMS7003;12220;50.194;18.948;2024-03-08T07:58:02;38;32;20
24012;PMS7003;12220;50.194;18.948;2024-03-08T08:00:13;50;36;21
24012;PMS7003;12220;50.194;18.948;2024-03-08T08:02:18;38;33;21
24012;PMS7003;12220;50.194;18.948;2024-03-08T08:04:20;41;35;19
24012;PMS7003;12220;50.194;18.948;2024-03-08T08:06:25;40;35;20
24012;PMS7003;12220;50.194;18.948;2024-03-08T08:08:28;47;37;22
24012;PMS7003;12220;50.194;18.948;2024-03-08T08:10:30;38;31;17
24012;PMS7003;12220;50.194;18.948;2024-03-08T08:12:33;40;31;20
24012;PMS7003;12220;50.194;18.948;2024-03-08T08:14:34;47;34;21
24012;PMS7003;12220;50.194;18.948;2024-03-08T08:16:43;42;33;22
24012;PMS7003;12220;50.194;18.948;2024-03-08T08:18:46;44;34;20
24012;PMS7003;12220;50.194;18.948;2024-03-08T08:20:49;40;29;19
24012;PMS7003;12220;50.194;18.948;2024-03-08T08:22:50;39;32;19
24012;PMS7003;12220;50.194;18.948;2024-03-08T08:24:58;41;34;20
24012;PMS7003;12220;50.194;18.948;2024-03-08T08:26:59;42;35;18
24012;PMS7003;12220;50.194;18.948;2024-03-08T08:29:01;40;34;20
24012;PMS7003;12220;50.194;18.948;2024-03-08T08:31:02;34;31;19
24012;PMS7003;12220;50.194;18.948;2024-03-08T08:33:13;35;28;14
24012;PMS7003;12220;50.194;18.948;2024-03-08T08:35:15;44;36;19
24012;PMS7003;12220;50.194;18.948;2024-03-08T08:37:18;44;36;21
24012;PMS7003;12220;50.194;18.948;2024-03-08T08:39:20;41;33;20
24012;PMS7003;12220;50.194;18.948;2024-03-08T08:41:28;34;30;20
24012;PMS7003;12220;50.194;18.948;2024-03-08T08:43:30;38;32;20
24012;PMS7003;12220;50.194;18.948;2024-03-08T08:45:31;38;33;18
24012;PMS7003;12220;50.194;18.948;2024-03-08T08:47:32;45;28;16
24012;PMS7003;12220;50.194;18.948;2024-03-08T08:49:44;36;31;18
24012;PMS7003;12220;50.194;18.948;2024-03-08T08:51:50;31;29;17
24012;PMS7003;12220;50.194;18.948;2024-03-08T08:53:51;42;31;21
24012;PMS7003;12220;50.194;18.948;2024-03-08T08:55:52;42;32;20
24012;PMS7003;12220;50.194;18.948;2024-03-08T08:57:58;42;34;22
24012;PMS7003;12220;50.194;18.948;2024-03-08T09:00:00;32;28;19
24012;PMS7003;12220;50.194;18.948;2024-03-08T09:02:02;28;28;19
24012;PMS7003;12220;50.194;18.948;2024-03-08T09:04:06;37;33;17
24012;PMS7003;12220;50.194;18.948;2024-03-08T09:06:14;42;33;21
24012;PMS7003;12220;50.194;18.948;2024-03-08T09:08:16;41;32;20
24012;PMS7003;12220;50.194;18.948;2024-03-08T09:10:17;39;33;19
24012;PMS7003;12220;50.194;18.948;2024-03-08T09:12:19;33;31;18
24012;PMS7003;12220;50.194;18.948;2024-03-08T09:14:30;29;27;15
24012;PMS7003;12220;50.194;18.948;2024-03-08T09:16:31;28;22;15
24012;PMS7003;12220;50.194;18.948;2024-03-08T09:18:33;34;30;18
24012;PMS7003;12220;50.194;18.948;2024-03-08T09:20:35;49;34;20
24012;PMS7003;12220;50.194;18.948;2024-03-08T09:22:45;38;31;18
24012;PMS7003;12220;50.194;18.948;2024-03-08T09:24:46;45;33;21
24012;PMS7003;12220;50.194;18.948;2024-03-08T09:26:47;38;29;16
24012;PMS7003;12220;50.194;18.948;2024-03-08T09:28:49;41;30;20
24012;PMS7003;12220;50.194;18.948;2024-03-08T09:31:00;41;33;20
24012;PMS7003;12220;50.194;18.948;2024-03-08T09:33:02;36;33;20
24012;PMS7003;12220;50.194;18.948;2024-03-08T09:35:03;32;29;18
24012;PMS7003;12220;50.194;18.948;2024-03-08T09:37:07;26;26;15
24012;PMS7003;12220;50.194;18.948;2024-03-08T09:39:16;44;33;17
24012;PMS7003;12220;50.194;18.948;2024-03-08T09:41:19;34;30;17
24012;PMS7003;12220;50.194;18.948;2024-03-08T09:43:20;44;35;20
24012;PMS7003;12220;50.194;18.948;2024-03-08T09:45:24;34;30;17
24012;PMS7003;12220;50.194;18.948;2024-03-08T09:47:31;38;32;20
24012;PMS7003;12220;50.194;18.948;2024-03-08T09:49:39;33;29;18
24012;PMS7003;12220;50.194;18.948;2024-03-08T09:51:41;39;34;21
24012;PMS7003;12220;50.194;18.948;2024-03-08T09:53:42;42;35;24
24012;PMS7003;12220;50.194;18.948;2024-03-08T09:55:46;40;32;17
24012;PMS7003;12220;50.194;18.948;2024-03-08T09:57:51;33;29;21
24012;PMS7003;12220;50.194;18.948;2024-03-08T10:00:06;38;33;21
24012;PMS7003;12220;50.194;18.948;2024-03-08T10:02:20;37;29;20
24012;PMS7003;12220;50.194;18.948;2024-03-08T10:04:22;37;30;19
24012;PMS7003;12220;50.194;18.948;2024-03-08T10:06:32;39;34;21
24012;PMS7003;12220;50.194;18.948;2024-03-08T10:08:33;48;35;21
24012;PMS7003;12220;50.194;18.948;2024-03-08T10:10:35;41;33;22
24012;PMS7003;12220;50.194;18.948;2024-03-08T10:12:38;39;30;17
24012;PMS7003;12220;50.194;18.948;2024-03-08T10:14:47;47;35;22
24012;PMS7003;12220;50.194;18.948;2024-03-08T10:16:48;49;35;21
24012;PMS7003;12220;50.194;18.948;2024-03-08T10:18:49;43;33;22
24012;PMS7003;12220;50.194;18.948;2024-03-08T10:23:04;40;32;19
24012;PMS7003;12220;50.194;18.948;2024-03-08T10:25:05;47;35;23
24012;PMS7003;12220;50.194;18.948;2024-03-08T10:27:07;41;32;20
24012;PMS7003;12220;50.194;18.948;2024-03-08T10:29:09;37;31;21
24012;PMS7003;12220;50.194;18.948;2024-03-08T10:31:18;33;28;19
24012;PMS7003;12220;50.194;18.948;2024-03-08T10:33:20;39;31;18
24012;PMS7003;12220;50.194;18.948;2024-03-08T10:35:22;39;32;19
24012;PMS7003;12220;50.194;18.948;2024-03-08T10:37:24;40;34;22
24012;PMS7003;12220;50.194;18.948;2024-03-08T10:39:36;41;32;20
24012;PMS7003;12220;50.194;18.948;2024-03-08T10:41:38;41;33;21
24012;PMS7003;12220;50.194;18.948;2024-03-08T10:46:08;43;35;20
24012;PMS7003;12220;50.194;18.948;2024-03-08T10:50:24;44;35;23
24012;PMS7003;12220;50.194;18.948;2024-03-08T10:52:34;39;33;22
24012;PMS7003;12220;50.194;18.948;2024-03-08T10:54:37;32;29;18
24012;PMS7003;12220;50.194;18.948;2024-03-08T10:56:41;38;32;20
24012;PMS7003;12220;50.194;18.948;2024-03-08T10:58:42;37;34;21
24012;PMS7003;12220;50.194;18.948;2024-03-08T11:00:49;43;36;21
24012;PMS7003;12220;50.194;18.948;2024-03-08T11:02:50;53;37;23
24012;PMS7003;12220;50.194;18.948;2024-03-08T11:04:51;37;32;19
24012;PMS7003;12220;50.194;18.948;2024-03-08T11:07:05;46;36;24
24012;PMS7003;12220;50.194;18.948;2024-03-08T11:13:38;43;33;20
24012;PMS7003;12220;50.194;18.948;2024-03-08T11:15:47;41;34;20
24012;PMS7003;12220;50.194;18.948;2024-03-08T11:17:49;37;30;20
24012;PMS7003;12220;50.194;18.948;2024-03-08T11:19:51;40;31;21
24012;PMS7003;12220;50.194;18.948;2024-03-08T11:22:00;37;33;21
24012;PMS7003;12220;50.194;18.948;2024-03-08T11:24:06;44;35;22
24012;PMS7003;12220;50.194;18.948;2024-03-08T11:26:18;40;35;21
24012;PMS7003;12220;50.194;18.948;2024-03-08T11:28:25;48;34;21
24012;PMS7003;12220;50.194;18.948;2024-03-08T11:30:32;40;31;20
24012;PMS7003;12220;50.194;18.948;2024-03-08T11:32:33;44;33;18
24012;PMS7003;12220;50.194;18.948;2024-03-08T11:34:39;37;33;19
24012;PMS7003;12220;50.194;18.948;2024-03-08T11:36:43;16;13;0
24012;PMS7003;12220;50.194;18.948;2024-03-08T11:38:50;44;32;21
24012;PMS7003;12220;50.194;18.948;2024-03-08T11:40:56;40;33;21
24012;PMS7003;12220;50.194;18.948;2024-03-08T11:42:57;34;31;18
24012;PMS7003;12220;50.194;18.948;2024-03-08T11:44:59;43;32;20
24012;PMS7003;12220;50.194;18.948;2024-03-08T11:47:07;32;28;19
24012;PMS7003;12220;50.194;18.948;2024-03-08T11:49:11;39;33;20
24012;PMS7003;12220;50.194;18.948;2024-03-08T11:51:12;40;35;22
24012;PMS7003;12220;50.194;18.948;2024-03-08T11:53:15;41;34;20
24012;PMS7003;12220;50.194;18.948;2024-03-08T11:55:17;43;36;22
24012;PMS7003;12220;50.194;18.948;2024-03-08T11:57:20;51;36;23
24012;PMS7003;12220;50.194;18.948;2024-03-08T11:59:27;50;36;21
24012;PMS7003;12220;50.194;18.948;2024-03-08T12:01:29;47;35;22
24012;PMS7003;12220;50.194;18.948;2024-03-08T12:03:33;46;35;23
24012;PMS7003;12220;50.194;18.948;2024-03-08T12:05:39;46;40;23
24012;PMS7003;12220;50.194;18.948;2024-03-08T12:07:40;44;34;23
24012;PMS7003;12220;50.194;18.948;2024-03-08T12:09:41;45;36;21
24012;PMS7003;12220;50.194;18.948;2024-03-08T12:11:48;49;36;23
24012;PMS7003;12220;50.194;18.948;2024-03-08T12:13:51;41;35;22
24012;PMS7003;12220;50.194;18.948;2024-03-08T12:15:52;54;39;24
24012;PMS7003;12220;50.194;18.948;2024-03-08T12:17:55;53;41;24
24012;PMS7003;12220;50.194;18.948;2024-03-08T12:20:25;38;34;22
24012;PMS7003;12220;50.194;18.948;2024-03-08T12:22:25;58;44;25
24012;PMS7003;12220;50.194;18.948;2024-03-08T12:24:27;46;35;23
24012;PMS7003;12220;50.194;18.948;2024-03-08T12:26:31;49;37;21
24012;PMS7003;12220;50.194;18.948;2024-03-08T12:28:33;39;32;19
24012;PMS7003;12220;50.194;18.948;2024-03-08T12:32:50;53;40;22
24012;PMS7003;12220;50.194;18.948;2024-03-08T12:34:54;37;33;23
24012;PMS7003;12220;50.194;18.948;2024-03-08T12:36:55;46;37;21
24012;PMS7003;12220;50.194;18.948;2024-03-08T12:38:59;48;37;24
24012;PMS7003;12220;50.194;18.948;2024-03-08T12:41:00;42;32;20
24012;PMS7003;12220;50.194;18.948;2024-03-08T12:43:05;46;34;20
24012;PMS7003;12220;50.194;18.948;2024-03-08T12:45:07;39;30;19
24012;PMS7003;12220;50.194;18.948;2024-03-08T12:47:14;44;36;21
24012;PMS7003;12220;50.194;18.948;2024-03-08T12:49:15;49;39;23
24012;PMS7003;12220;50.194;18.948;2024-03-08T12:51:22;44;34;21
24012;PMS7003;12220;50.194;18.948;2024-03-08T12:53:24;46;33;21
24012;PMS7003;12220;50.194;18.948;2024-03-08T12:55:29;49;35;23
24012;PMS7003;12220;50.194;18.948;2024-03-08T12:57:30;49;36;23
24012;PMS7003;12220;50.194;18.948;2024-03-08T12:59:31;54;39;23
24012;PMS7003;12220;50.194;18.948;2024-03-08T13:01:33;48;37;23
24012;PMS7003;12220;50.194;18.948;2024-03-08T13:03:44;45;38;24
24012;PMS7003;12220;50.194;18.948;2024-03-08T13:05:47;47;37;23
24012;PMS7003;12220;50.194;18.948;2024-03-08T13:07:49;52;39;23
24012;PMS7003;12220;50.194;18.948;2024-03-08T13:09:54;53;39;22
24012;PMS7003;12220;50.194;18.948;2024-03-08T13:11:59;47;37;22
24012;PMS7003;12220;50.194;18.948;2024-03-08T13:14:05;50;39;22
24012;PMS7003;12220;50.194;18.948;2024-03-08T13:16:06;42;30;19
24012;PMS7003;12220;50.194;18.948;2024-03-08T13:18:15;44;36;22